Swift Ace — C6XB8 — position and weather

sailwx.info

Track history (hours):
 
Tides and Currents Weather Stations Pressure Air Temp Water Temp Dewpoint Dewpoint Depression Visibility Wind Speed Wind Dir Waves Ship Positions

Swift Ace

Last reported at 2016-Jul-26 16:30 UTC. Time now 2016-Jul-27 01:49 UTC.
Position N 01°16' E 104°13'.

Length 200 m; draft 8.6 m.

Type: Cargo ship. MMSI: 310968322.

Date/timePositionNaut miles runAvg speedWind from/ knotsBaromVisibWave heightAir tempDewpointWater temp
2016-Jul-26 16:30N 01°16' E 104°13'1415.1
2016-Jul-26 15:34N 01°14' E 103°59'1111.0
2016-Jul-26 14:33N 01°13' E 103°48'5 4.8
2016-Jul-26 13:33N 01°17' E 103°45'0 0.0
2016-Jul-26 12:15N 01°17' E 103°45'0 0.0
2016-Jul-26 11:30N 01°17' E 103°45'0 0.0
2016-Jul-26 10:33N 01°17' E 103°45'0 0.0
2016-Jul-26 09:15N 01°17' E 103°45'0 0.0
2016-Jul-26 08:30N 01°17' E 103°45'0 0.0
2016-Jul-26 07:33N 01°17' E 103°45'3 3.0
2016-Jul-26 06:33N 01°15' E 103°44'9 9.2
2016-Jul-26 05:33N 01°12' E 103°35'59 9.8
2016-Jul-25 23:32N 01°39' E 102°42'1313.6
2016-Jul-25 22:33N 01°45' E 102°30'1413.6
2016-Jul-25 21:34N 01°51' E 102°18'1110.8
2016-Jul-25 20:33N 01°57' E 102°09'  
Track history (hours):
 
Tides and Currents Weather Stations Pressure Air Temp Water Temp Dewpoint Dewpoint Depression Visibility Wind Speed Wind Dir Waves Ship Positions

Swift Ace

Last reported at 2016-Jul-26 16:30 UTC. Time now 2016-Jul-27 01:49 UTC.
Position N 01°16' E 104°13'.

Length 200 m; draft 8.6 m.

Type: Cargo ship. MMSI: 310968322.

Date/timePositionNaut miles runAvg speedWind from/ knotsBaromVisibWave heightAir tempDewpointWater temp
2016-Jul-26 16:30N 01°16' E 104°13'1415.1
2016-Jul-26 15:34N 01°14' E 103°59'1111.0
2016-Jul-26 14:33N 01°13' E 103°48'5 4.8
2016-Jul-26 13:33N 01°17' E 103°45'0 0.0
2016-Jul-26 12:15N 01°17' E 103°45'0 0.0
2016-Jul-26 11:30N 01°17' E 103°45'0 0.0
2016-Jul-26 10:33N 01°17' E 103°45'0 0.0
2016-Jul-26 09:15N 01°17' E 103°45'0 0.0
2016-Jul-26 08:30N 01°17' E 103°45'0 0.0
2016-Jul-26 07:33N 01°17' E 103°45'3 3.0
2016-Jul-26 06:33N 01°15' E 103°44'9 9.2
2016-Jul-26 05:33N 01°12' E 103°35'59 9.8
2016-Jul-25 23:32N 01°39' E 102°42'1313.6
2016-Jul-25 22:33N 01°45' E 102°30'1413.6
2016-Jul-25 21:34N 01°51' E 102°18'1110.8
2016-Jul-25 20:33N 01°57' E 102°09'  

Dump ship's entire track history